Time;durP1;ratioP1;P1;durP2;ratioP2;P2;SDS_P1;SDS_P2;PMS_P1;PMS_P2;Temp;Humidity;BMP_temperature;BMP_pressure;BME280_temperature;BME280_humidity;BME280_pressure;Samples;Min_cycle;Max_cycle;Signal;HPM_P1;HPM_P2
2021/06/29 00:02:11;;;;;;;5.83;5.43;;;;;;;;;;5072160;28;20768;-85
2021/06/29 00:04:37;;;;;;;6.10;5.60;;;;;;;;;;5073224;28;20177;-85
2021/06/29 00:07:03;;;;;;;7.00;6.30;;;;;;;;;;5071485;28;20200;-85
2021/06/29 00:09:29;;;;;;;6.03;5.53;;;;;;;;;;5071842;28;20172;-85
2021/06/29 00:11:56;;;;;;;5.83;5.37;;;;;;;;;;5071829;28;20184;-85
2021/06/29 00:14:22;;;;;;;6.60;6.00;;;;;;;;;;5071321;28;20181;-85
2021/06/29 00:16:48;;;;;;;5.87;5.47;;;;;;;;;;5071873;28;20204;-86
2021/06/29 00:19:14;;;;;;;4.90;4.50;;;;;;;;;;5067765;28;20173;-85
2021/06/29 00:21:40;;;;;;;6.00;5.50;;;;;;;;;;5071361;28;20184;-85
2021/06/29 00:24:06;;;;;;;5.80;5.30;;;;;;;;;;5070494;28;20251;-85
2021/06/29 00:26:32;;;;;;;7.23;6.07;;;;;;;;;;5070886;28;20215;-86
2021/06/29 00:28:58;;;;;;;6.23;5.73;;;;;;;;;;5071257;28;20206;-85
2021/06/29 00:31:24;;;;;;;5.80;5.30;;;;;;;;;;5067994;28;20181;-86
2021/06/29 00:33:51;;;;;;;6.40;5.90;;;;;;;;;;5062151;28;20310;-85
2021/06/29 00:36:17;;;;;;;6.17;5.67;;;;;;;;;;5065957;28;20228;-86
2021/06/29 00:38:44;;;;;;;6.67;6.17;;;;;;;;;;5071504;28;20481;-86
2021/06/29 00:41:10;;;;;;;6.33;5.83;;;;;;;;;;5071137;28;20186;-85
2021/06/29 00:43:36;;;;;;;6.17;5.57;;;;;;;;;;5071740;28;20908;-85
2021/06/29 00:46:02;;;;;;;6.20;5.70;;;;;;;;;;5071171;28;20180;-85
2021/06/29 00:48:29;;;;;;;5.53;5.13;;;;;;;;;;5071361;28;20179;-86
2021/06/29 00:50:55;;;;;;;6.30;5.80;;;;;;;;;;5070930;28;20268;-85
2021/06/29 00:53:21;;;;;;;5.90;5.40;;;;;;;;;;5071581;28;20216;-86
2021/06/29 00:55:47;;;;;;;5.87;5.47;;;;;;;;;;5066346;28;20177;-86
2021/06/29 00:58:13;;;;;;;5.50;5.10;;;;;;;;;;5071349;28;20185;-85
2021/06/29 01:00:41;;;;;;;5.73;5.30;;;;;;;;;;5071273;28;20324;-85
2021/06/29 01:03:08;;;;;;;5.97;5.47;;;;;;;;;;5071554;28;20188;-85
2021/06/29 01:05:34;;;;;;;6.43;5.90;;;;;;;;;;5070228;28;20195;-85
2021/06/29 01:08:00;;;;;;;6.03;5.63;;;;;;;;;;5066017;28;20609;-86
2021/06/29 01:10:27;;;;;;;5.97;5.47;;;;;;;;;;5063288;28;20315;-85
2021/06/29 01:12:53;;;;;;;6.40;5.90;;;;;;;;;;5071549;28;20188;-85
2021/06/29 01:15:23;;;;;;;6.90;6.30;;;;;;;;;;5066198;28;20627;-86
2021/06/29 01:17:49;;;;;;;6.70;6.20;;;;;;;;;;5071633;28;20687;-86
2021/06/29 01:20:18;;;;;;;6.47;5.97;;;;;;;;;;5070493;28;20196;-85
2021/06/29 01:22:45;;;;;;;7.00;6.40;;;;;;;;;;5071076;28;20192;-86
2021/06/29 01:25:14;;;;;;;6.77;6.13;;;;;;;;;;5069291;28;20522;-86
2021/06/29 01:33:25;;;;;;;6.97;5.50;;;;;;;;;;5066280;28;20231;-87
2021/06/29 01:35:52;;;;;;;5.80;5.30;;;;;;;;;;5063112;28;20216;-86
2021/06/29 01:38:19;;;;;;;5.93;5.37;;;;;;;;;;5070852;28;20222;-87
2021/06/29 01:40:45;;;;;;;5.67;5.10;;;;;;;;;;5063714;28;20253;-87
2021/06/29 01:43:12;;;;;;;5.60;5.10;;;;;;;;;;5070840;28;20169;-87
2021/06/29 01:45:40;;;;;;;5.17;4.67;;;;;;;;;;5067820;28;20185;-87
2021/06/29 01:48:16;;;;;;;5.00;4.47;;;;;;;;;;5051362;28;20177;-87
2021/06/29 01:50:42;;;;;;;4.80;4.40;;;;;;;;;;5070214;28;20175;-86
2021/06/29 01:53:08;;;;;;;4.47;3.97;;;;;;;;;;5071163;28;20176;-86
2021/06/29 01:55:34;;;;;;;5.40;4.50;;;;;;;;;;5070454;28;20185;-86
2021/06/29 01:58:02;;;;;;;5.10;4.57;;;;;;;;;;5070588;28;21012;-87
2021/06/29 02:00:28;;;;;;;5.33;4.83;;;;;;;;;;5072352;28;20169;-87
2021/06/29 02:02:54;;;;;;;5.43;5.00;;;;;;;;;;5058407;28;20411;-86
2021/06/29 02:05:21;;;;;;;5.47;4.43;;;;;;;;;;5069918;28;20199;-87
2021/06/29 02:07:47;;;;;;;4.80;4.30;;;;;;;;;;5070929;28;20196;-87
2021/06/29 02:10:14;;;;;;;4.20;3.90;;;;;;;;;;5069982;28;21019;-86
2021/06/29 02:12:41;;;;;;;5.90;4.20;;;;;;;;;;5070458;28;20195;-87
2021/06/29 02:15:07;;;;;;;5.13;4.60;;;;;;;;;;5069958;28;20177;-87
2021/06/29 02:17:34;;;;;;;5.20;4.60;;;;;;;;;;5070569;28;20199;-87
2021/06/29 02:20:00;;;;;;;4.23;3.83;;;;;;;;;;5069620;28;20580;-87
2021/06/29 02:22:26;;;;;;;4.73;4.33;;;;;;;;;;5069579;28;20176;-87
2021/06/29 02:24:52;;;;;;;4.57;4.17;;;;;;;;;;5068012;28;20179;-87
2021/06/29 02:27:18;;;;;;;4.97;3.70;;;;;;;;;;5080862;28;20172;-87
2021/06/29 02:29:44;;;;;;;4.93;4.50;;;;;;;;;;5069921;28;20598;-86
2021/06/29 02:32:10;;;;;;;8.10;4.60;;;;;;;;;;5070172;28;20184;-86
2021/06/29 02:34:36;;;;;;;6.33;4.30;;;;;;;;;;5068821;28;20215;-86
2021/06/29 02:37:02;;;;;;;4.43;4.03;;;;;;;;;;5069890;28;20213;-86
2021/06/29 02:39:28;;;;;;;3.90;3.60;;;;;;;;;;5058834;28;20184;-86
2021/06/29 02:41:55;;;;;;;4.20;3.80;;;;;;;;;;5071712;28;20202;-86
2021/06/29 02:44:23;;;;;;;5.60;4.23;;;;;;;;;;5062751;28;20198;-86
2021/06/29 02:46:49;;;;;;;5.17;3.93;;;;;;;;;;5070354;28;20267;-86
2021/06/29 02:49:15;;;;;;;7.00;4.60;;;;;;;;;;5069054;28;20179;-86
2021/06/29 02:51:41;;;;;;;4.97;4.47;;;;;;;;;;5071538;28;20577;-87
2021/06/29 02:54:07;;;;;;;4.30;4.00;;;;;;;;;;5068330;28;20533;-86
2021/06/29 02:56:42;;;;;;;4.10;3.53;;;;;;;;;;5055028;28;20200;-87
2021/06/29 02:59:17;;;;;;;4.17;3.87;;;;;;;;;;5069632;28;20179;-87
2021/06/29 03:01:44;;;;;;;3.97;3.67;;;;;;;;;;5069894;28;20205;-87
2021/06/29 03:04:11;;;;;;;4.40;3.90;;;;;;;;;;5068817;28;20195;-87
2021/06/29 03:06:37;;;;;;;4.20;3.80;;;;;;;;;;5069608;28;20239;-86
2021/06/29 03:09:07;;;;;;;4.83;4.10;;;;;;;;;;5068715;28;20289;-86
2021/06/29 03:11:33;;;;;;;4.30;3.90;;;;;;;;;;5057434;28;20985;-86
2021/06/29 03:13:59;;;;;;;4.23;3.87;;;;;;;;;;5066916;28;20182;-86
2021/06/29 03:16:25;;;;;;;3.63;3.33;;;;;;;;;;5069657;28;20210;-86
2021/06/29 03:18:51;;;;;;;4.00;3.60;;;;;;;;;;5069573;28;20186;-87
2021/06/29 03:21:18;;;;;;;4.10;3.70;;;;;;;;;;5071301;28;20181;-86
2021/06/29 03:23:44;;;;;;;3.43;3.10;;;;;;;;;;5067846;28;20175;-86
2021/06/29 03:26:10;;;;;;;4.70;4.27;;;;;;;;;;5068938;28;20170;-86
2021/06/29 03:28:36;;;;;;;4.00;3.60;;;;;;;;;;5069607;28;20213;-86
2021/06/29 03:31:02;;;;;;;3.77;3.43;;;;;;;;;;5069632;28;20181;-86
2021/06/29 03:33:28;;;;;;;4.20;3.90;;;;;;;;;;5065712;28;20265;-87
2021/06/29 03:35:54;;;;;;;3.80;3.50;;;;;;;;;;5066871;28;20242;-86
2021/06/29 03:38:20;;;;;;;4.10;3.73;;;;;;;;;;5068855;28;20184;-86
2021/06/29 03:40:46;;;;;;;4.80;3.77;;;;;;;;;;5058020;28;20184;-86
2021/06/29 03:43:12;;;;;;;4.40;3.83;;;;;;;;;;5059822;28;20264;-86
2021/06/29 03:45:38;;;;;;;4.17;3.87;;;;;;;;;;5068663;28;20220;-86
2021/06/29 03:48:05;;;;;;;4.67;4.27;;;;;;;;;;5068783;28;20181;-86
2021/06/29 03:50:31;;;;;;;4.63;4.10;;;;;;;;;;5068438;28;20516;-86
2021/06/29 03:52:57;;;;;;;4.73;3.90;;;;;;;;;;5068594;28;20212;-86
2021/06/29 03:55:23;;;;;;;4.03;3.43;;;;;;;;;;5069561;28;20737;-86
2021/06/29 03:57:49;;;;;;;3.57;3.23;;;;;;;;;;5068870;28;20193;-86
2021/06/29 04:00:15;;;;;;;4.37;3.97;;;;;;;;;;5070082;28;20191;-86
2021/06/29 04:02:42;;;;;;;4.07;3.77;;;;;;;;;;5073697;28;20232;-86
2021/06/29 04:05:08;;;;;;;4.60;4.20;;;;;;;;;;5071375;28;20665;-86
2021/06/29 04:07:35;;;;;;;5.70;4.00;;;;;;;;;;5071174;28;20289;-87
2021/06/29 04:10:02;;;;;;;3.90;3.53;;;;;;;;;;5058983;28;20314;-86
2021/06/29 04:12:28;;;;;;;4.23;3.90;;;;;;;;;;5071925;28;20194;-86
2021/06/29 04:14:54;;;;;;;4.03;3.63;;;;;;;;;;5073207;28;20186;-86
2021/06/29 04:17:20;;;;;;;4.03;3.73;;;;;;;;;;5071158;28;20206;-86
2021/06/29 04:19:46;;;;;;;3.87;3.57;;;;;;;;;;5071427;28;20600;-86
2021/06/29 04:22:12;;;;;;;4.17;3.57;;;;;;;;;;5068797;28;20579;-86
2021/06/29 04:24:38;;;;;;;3.23;2.93;;;;;;;;;;5062030;28;20530;-86
2021/06/29 04:27:05;;;;;;;4.77;3.80;;;;;;;;;;5066157;28;20177;-86
2021/06/29 04:29:31;;;;;;;3.57;3.27;;;;;;;;;;5071978;28;21024;-85
2021/06/29 04:31:57;;;;;;;3.43;3.13;;;;;;;;;;5070036;28;20536;-88
2021/06/29 04:34:23;;;;;;;3.43;3.13;;;;;;;;;;5070927;28;20219;-88
2021/06/29 04:36:49;;;;;;;4.37;3.53;;;;;;;;;;5066233;28;20251;-88
2021/06/29 04:39:15;;;;;;;3.50;3.20;;;;;;;;;;5070391;28;20426;-88
2021/06/29 04:41:41;;;;;;;4.13;3.77;;;;;;;;;;5071898;28;20252;-88
2021/06/29 04:44:07;;;;;;;4.70;4.30;;;;;;;;;;5070906;28;20653;-88
2021/06/29 04:46:33;;;;;;;4.33;3.93;;;;;;;;;;5070164;28;20289;-88
2021/06/29 04:49:00;;;;;;;4.33;3.93;;;;;;;;;;5064434;28;20267;-89
2021/06/29 04:51:26;;;;;;;5.03;4.47;;;;;;;;;;5064047;28;20260;-91
2021/06/29 04:53:52;;;;;;;4.23;3.83;;;;;;;;;;5071295;28;20205;-90
2021/06/29 04:56:18;;;;;;;4.30;3.83;;;;;;;;;;5070652;28;20632;-90
2021/06/29 04:58:45;;;;;;;4.37;3.97;;;;;;;;;;5071143;28;20655;-90
2021/06/29 05:01:11;;;;;;;4.53;4.13;;;;;;;;;;5069044;28;20281;-89
2021/06/29 05:03:38;;;;;;;10.70;9.02;;;;;;;;;;5067978;28;20537;-90
2021/06/29 05:06:04;;;;;;;6.00;5.40;;;;;;;;;;5069127;28;20513;-89
2021/06/29 05:08:30;;;;;;;5.70;5.07;;;;;;;;;;5070851;28;20533;-90
2021/06/29 05:10:57;;;;;;;5.77;4.87;;;;;;;;;;5069264;28;20597;-89
2021/06/29 05:13:23;;;;;;;7.63;6.93;;;;;;;;;;5056170;28;20174;-87
2021/06/29 05:15:49;;;;;;;6.47;5.87;;;;;;;;;;5070696;28;20718;-86
2021/06/29 05:18:18;;;;;;;5.47;4.97;;;;;;;;;;5070721;28;20185;-87
2021/06/29 05:20:44;;;;;;;14.87;13.30;;;;;;;;;;5072425;28;20181;-90
2021/06/29 05:23:10;;;;;;;17.07;15.43;;;;;;;;;;5065796;28;20264;-90
2021/06/29 05:25:36;;;;;;;14.23;12.93;;;;;;;;;;5056278;28;20284;-86
2021/06/29 05:28:03;;;;;;;14.47;12.27;;;;;;;;;;5071051;28;20518;-88
2021/06/29 05:30:29;;;;;;;11.57;10.33;;;;;;;;;;5070002;28;20255;-87
2021/06/29 05:32:55;;;;;;;12.03;10.93;;;;;;;;;;5072458;28;20184;-87
2021/06/29 05:35:21;;;;;;;11.77;10.53;;;;;;;;;;5070436;28;20224;-87
2021/06/29 05:37:47;;;;;;;11.87;10.17;;;;;;;;;;5072921;28;20237;-87
2021/06/29 05:40:13;;;;;;;11.00;9.87;;;;;;;;;;5071415;28;20185;-87
2021/06/29 05:42:39;;;;;;;12.30;10.70;;;;;;;;;;5071839;28;20483;-87
2021/06/29 05:45:07;;;;;;;10.37;9.37;;;;;;;;;;5071063;28;20309;-87
2021/06/29 05:47:35;;;;;;;11.00;9.90;;;;;;;;;;5071674;28;20185;-87
2021/06/29 05:50:01;;;;;;;10.83;9.83;;;;;;;;;;5070939;28;20188;-86
2021/06/29 05:52:28;;;;;;;9.33;8.50;;;;;;;;;;5090579;28;20180;-86
2021/06/29 05:54:54;;;;;;;10.70;9.60;;;;;;;;;;5075298;28;20177;-85
2021/06/29 05:57:20;;;;;;;18.10;16.03;;;;;;;;;;5070921;28;20245;-84
2021/06/29 05:59:46;;;;;;;17.37;15.57;;;;;;;;;;5067867;28;20319;-85
2021/06/29 06:02:12;;;;;;;14.33;12.90;;;;;;;;;;5063854;28;20203;-85
2021/06/29 06:04:39;;;;;;;14.80;11.77;;;;;;;;;;5071898;28;20257;-84
2021/06/29 06:07:05;;;;;;;13.50;12.27;;;;;;;;;;5070699;28;20566;-85
2021/06/29 06:09:31;;;;;;;14.37;11.67;;;;;;;;;;5071113;28;20185;-85
2021/06/29 06:11:58;;;;;;;13.23;11.83;;;;;;;;;;5071469;28;20190;-84
2021/06/29 06:14:24;;;;;;;15.53;10.90;;;;;;;;;;5070084;28;20188;-85
2021/06/29 06:16:50;;;;;;;12.40;10.30;;;;;;;;;;5070494;28;20200;-85
2021/06/29 06:19:16;;;;;;;12.13;9.60;;;;;;;;;;5070478;28;20199;-85
2021/06/29 06:21:42;;;;;;;10.70;9.70;;;;;;;;;;5071064;28;20169;-85
2021/06/29 06:24:08;;;;;;;10.27;9.27;;;;;;;;;;5066972;28;20181;-85
2021/06/29 06:26:34;;;;;;;11.10;8.83;;;;;;;;;;5051576;28;20180;-85
2021/06/29 06:29:01;;;;;;;9.57;8.67;;;;;;;;;;5070212;28;20623;-85
2021/06/29 06:31:27;;;;;;;10.97;8.90;;;;;;;;;;5063766;28;20196;-85
2021/06/29 06:33:53;;;;;;;9.47;8.57;;;;;;;;;;5067567;28;20891;-85
2021/06/29 06:36:19;;;;;;;9.77;8.77;;;;;;;;;;5064238;28;20245;-85
2021/06/29 06:38:45;;;;;;;9.53;7.20;;;;;;;;;;5071120;28;20518;-84
2021/06/29 06:41:13;;;;;;;7.77;6.73;;;;;;;;;;5071467;28;20188;-84
2021/06/29 06:43:40;;;;;;;8.40;7.30;;;;;;;;;;5069771;28;20273;-85
2021/06/29 06:46:08;;;;;;;7.07;6.37;;;;;;;;;;5069996;28;20263;-84
2021/06/29 06:48:34;;;;;;;6.83;5.50;;;;;;;;;;5069884;28;20566;-85
2021/06/29 06:51:00;;;;;;;7.30;6.47;;;;;;;;;;5065798;28;20232;-84
2021/06/29 06:53:26;;;;;;;6.13;5.57;;;;;;;;;;5065475;28;20255;-84
2021/06/29 06:55:52;;;;;;;8.33;6.13;;;;;;;;;;5069712;28;20252;-84
2021/06/29 06:58:18;;;;;;;6.33;5.57;;;;;;;;;;5069513;28;20176;-84
2021/06/29 07:00:44;;;;;;;6.37;5.77;;;;;;;;;;5069296;28;20542;-84
2021/06/29 07:03:10;;;;;;;5.87;5.17;;;;;;;;;;5069194;28;20218;-85
2021/06/29 07:05:37;;;;;;;5.13;4.63;;;;;;;;;;5070077;28;20698;-84
2021/06/29 07:08:03;;;;;;;5.80;5.20;;;;;;;;;;5070651;28;20803;-84
2021/06/29 07:10:29;;;;;;;7.60;5.23;;;;;;;;;;5067501;28;20203;-85
2021/06/29 07:12:55;;;;;;;5.80;5.20;;;;;;;;;;5070223;28;20189;-85
2021/06/29 07:15:21;;;;;;;4.60;4.22;;;;;;;;;;5069230;28;20785;-85
2021/06/29 07:17:47;;;;;;;6.90;4.70;;;;;;;;;;5071944;28;20196;-85
2021/06/29 07:20:14;;;;;;;5.73;4.97;;;;;;;;;;5071247;28;20282;-85
2021/06/29 07:22:40;;;;;;;4.33;3.80;;;;;;;;;;5071929;28;20175;-85
2021/06/29 07:25:07;;;;;;;4.97;4.57;;;;;;;;;;5059652;28;20190;-85
2021/06/29 07:27:36;;;;;;;5.17;4.77;;;;;;;;;;5063656;28;20547;-87
2021/06/29 07:30:04;;;;;;;6.43;4.80;;;;;;;;;;5063310;28;20212;-87
2021/06/29 07:32:30;;;;;;;6.47;5.00;;;;;;;;;;5070891;28;20193;-84
2021/06/29 07:34:56;;;;;;;6.07;4.83;;;;;;;;;;5069653;28;20225;-84
2021/06/29 07:37:22;;;;;;;5.97;5.33;;;;;;;;;;5073956;28;20579;-83
2021/06/29 07:39:48;;;;;;;7.53;6.80;;;;;;;;;;5071533;28;20176;-85
2021/06/29 07:42:14;;;;;;;8.90;8.00;;;;;;;;;;5072014;28;20177;-83
2021/06/29 07:44:40;;;;;;;9.07;8.17;;;;;;;;;;5072329;28;20167;-85
2021/06/29 07:47:06;;;;;;;9.03;8.10;;;;;;;;;;5073193;28;20170;-85
2021/06/29 07:49:32;;;;;;;8.83;8.03;;;;;;;;;;5073293;28;20254;-85
2021/06/29 07:51:58;;;;;;;9.37;7.20;;;;;;;;;;5072562;28;20177;-85
2021/06/29 07:54:24;;;;;;;8.00;7.23;;;;;;;;;;5071472;28;20596;-85
2021/06/29 07:56:50;;;;;;;10.30;8.00;;;;;;;;;;5071758;28;20585;-87
2021/06/29 07:59:16;;;;;;;8.50;7.60;;;;;;;;;;5067372;28;20191;-84
2021/06/29 08:01:42;;;;;;;8.90;6.70;;;;;;;;;;5061234;28;20553;-83
2021/06/29 08:04:08;;;;;;;10.13;7.10;;;;;;;;;;5072373;28;20173;-83
2021/06/29 08:06:34;;;;;;;9.17;7.40;;;;;;;;;;5071814;28;20208;-83
2021/06/29 08:09:01;;;;;;;7.30;6.60;;;;;;;;;;5063389;28;20220;-84
2021/06/29 08:11:27;;;;;;;8.97;7.40;;;;;;;;;;5062368;28;20277;-84
2021/06/29 08:13:53;;;;;;;7.77;7.07;;;;;;;;;;5072782;28;20200;-84
2021/06/29 08:16:19;;;;;;;8.17;7.47;;;;;;;;;;5072461;28;20207;-84
2021/06/29 08:18:45;;;;;;;8.80;7.53;;;;;;;;;;5072887;28;20706;-84
2021/06/29 08:21:11;;;;;;;10.07;8.37;;;;;;;;;;5074001;28;20533;-84
2021/06/29 08:23:37;;;;;;;13.83;9.67;;;;;;;;;;5073968;28;20496;-84
2021/06/29 08:26:04;;;;;;;11.30;10.10;;;;;;;;;;5072721;28;20196;-84
2021/06/29 08:28:34;;;;;;;11.60;9.93;;;;;;;;;;5071312;28;20181;-84
2021/06/29 08:31:00;;;;;;;12.70;10.23;;;;;;;;;;5068079;28;20195;-85
2021/06/29 08:33:26;;;;;;;14.67;12.27;;;;;;;;;;5060291;28;20238;-84
2021/06/29 08:35:53;;;;;;;13.07;11.73;;;;;;;;;;5072359;28;20236;-84
2021/06/29 08:38:19;;;;;;;12.80;11.33;;;;;;;;;;5071634;28;20233;-84
2021/06/29 08:40:46;;;;;;;15.03;12.03;;;;;;;;;;5073167;28;20187;-84
2021/06/29 08:43:12;;;;;;;14.63;12.80;;;;;;;;;;5073539;28;20188;-84
2021/06/29 08:45:39;;;;;;;14.10;12.60;;;;;;;;;;5070995;28;20622;-84
2021/06/29 08:48:05;;;;;;;13.43;11.47;;;;;;;;;;5071823;28;20627;-83
2021/06/29 08:50:31;;;;;;;12.87;11.57;;;;;;;;;;5070333;28;20185;-85
2021/06/29 08:52:58;;;;;;;13.93;12.53;;;;;;;;;;5069462;28;20195;-84
2021/06/29 08:55:28;;;;;;;13.80;12.40;;;;;;;;;;5071739;28;20665;-83
2021/06/29 08:57:54;;;;;;;12.60;11.30;;;;;;;;;;5071556;28;20567;-84
2021/06/29 09:00:20;;;;;;;13.60;12.30;;;;;;;;;;5071469;28;20184;-83
2021/06/29 09:02:46;;;;;;;11.23;10.23;;;;;;;;;;5070940;28;20188;-84
2021/06/29 09:05:22;;;;;;;15.80;13.97;;;;;;;;;;5070412;28;20172;-84
2021/06/29 09:07:59;;;;;;;19.60;13.90;;;;;;;;;;5054437;28;20587;-84
2021/06/29 09:10:26;;;;;;;15.83;14.00;;;;;;;;;;5071734;28;20221;-83
2021/06/29 09:12:54;;;;;;;14.90;13.40;;;;;;;;;;5071856;28;20178;-84
2021/06/29 09:15:23;;;;;;;13.50;12.20;;;;;;;;;;5073202;28;20185;-83
2021/06/29 09:17:50;;;;;;;18.43;16.50;;;;;;;;;;5069254;28;20206;-83
2021/06/29 09:20:24;;;;;;;18.87;15.13;;;;;;;;;;5073600;28;20662;-83
2021/06/29 09:22:50;;;;;;;15.63;14.00;;;;;;;;;;5072788;28;20190;-83
2021/06/29 09:25:27;;;;;;;16.63;14.40;;;;;;;;;;5072645;28;20206;-83
2021/06/29 09:27:53;;;;;;;16.27;14.10;;;;;;;;;;5073816;28;20194;-85
2021/06/29 09:30:29;;;;;;;16.10;14.30;;;;;;;;;;5082056;28;20244;-83
2021/06/29 09:32:59;;;;;;;20.33;15.40;;;;;;;;;;5093168;28;20186;-83
2021/06/29 09:35:26;;;;;;;15.97;14.47;;;;;;;;;;5089193;28;20223;-83
2021/06/29 09:37:52;;;;;;;18.13;15.43;;;;;;;;;;5091615;28;20210;-85
2021/06/29 09:40:19;;;;;;;17.57;15.93;;;;;;;;;;5090412;28;20183;-83
2021/06/29 09:42:45;;;;;;;17.40;15.63;;;;;;;;;;5090681;28;20226;-84
2021/06/29 09:45:30;;;;;;;18.13;16.13;;;;;;;;;;5090688;28;20185;-83
2021/06/29 09:47:56;;;;;;;22.23;18.43;;;;;;;;;;5094590;28;20173;-83
2021/06/29 09:50:36;;;;;;;19.73;17.30;;;;;;;;;;5085658;28;20177;-87
2021/06/29 09:53:26;;;;;;;19.70;17.67;;;;;;;;;;5080642;28;20199;-85
2021/06/29 09:55:54;;;;;;;21.17;18.97;;;;;;;;;;5069832;28;20653;-86
2021/06/29 09:58:21;;;;;;;20.03;18.00;;;;;;;;;;5076605;28;20358;-84
2021/06/29 10:00:49;;;;;;;22.80;20.03;;;;;;;;;;5074739;28;20259;-86
2021/06/29 10:03:20;;;;;;;19.73;17.73;;;;;;;;;;5068668;28;20695;-85
2021/06/29 10:05:46;;;;;;;19.53;17.60;;;;;;;;;;5074150;28;20274;-87
2021/06/29 10:08:21;;;;;;;20.00;18.00;;;;;;;;;;5059591;28;20209;-87
2021/06/29 10:10:47;;;;;;;23.60;17.63;;;;;;;;;;5073716;28;20620;-87
2021/06/29 10:13:17;;;;;;;19.17;17.27;;;;;;;;;;5071167;28;20194;-87
2021/06/29 10:15:43;;;;;;;20.67;18.10;;;;;;;;;;5072875;28;20189;-87
2021/06/29 10:18:10;;;;;;;21.90;19.63;;;;;;;;;;5065478;28;20230;-88
2021/06/29 10:20:53;;;;;;;21.93;19.57;;;;;;;;;;5061655;28;20191;-87
2021/06/29 10:23:20;;;;;;;22.13;19.87;;;;;;;;;;5060006;28;20647;-89
2021/06/29 10:25:46;;;;;;;21.30;18.43;;;;;;;;;;5066840;28;20260;-84
2021/06/29 10:28:16;;;;;;;21.10;18.77;;;;;;;;;;5070552;28;20181;-85
2021/06/29 10:30:49;;;;;;;20.13;17.93;;;;;;;;;;5069002;28;20706;-83
2021/06/29 10:33:15;;;;;;;21.83;18.80;;;;;;;;;;5067853;28;20197;-85
2021/06/29 10:35:42;;;;;;;20.20;18.07;;;;;;;;;;5069503;28;20221;-84
2021/06/29 10:38:10;;;;;;;18.80;16.77;;;;;;;;;;5069866;28;20674;-85
2021/06/29 10:40:37;;;;;;;18.77;16.90;;;;;;;;;;5068426;28;20239;-86
2021/06/29 10:43:03;;;;;;;18.37;16.37;;;;;;;;;;5069841;28;20255;-86
2021/06/29 10:45:36;;;;;;;17.97;15.83;;;;;;;;;;5069316;28;20186;-84
2021/06/29 10:48:22;;;;;;;18.03;16.30;;;;;;;;;;5070964;28;20180;-85
2021/06/29 10:50:50;;;;;;;19.83;16.93;;;;;;;;;;5062504;28;20692;-84
2021/06/29 10:53:31;;;;;;;16.63;15.00;;;;;;;;;;5063170;28;20172;-84
2021/06/29 10:55:57;;;;;;;16.60;14.90;;;;;;;;;;5070005;28;20298;-85
2021/06/29 10:58:36;;;;;;;16.13;14.37;;;;;;;;;;5069065;28;20197;-85
2021/06/29 11:01:21;;;;;;;15.97;14.03;;;;;;;;;;5068063;28;20179;-85
2021/06/29 11:03:47;;;;;;;16.00;14.30;;;;;;;;;;5069621;28;20182;-85
2021/06/29 11:06:14;;;;;;;16.40;14.37;;;;;;;;;;5068677;28;20174;-84
2021/06/29 11:08:47;;;;;;;14.67;13.00;;;;;;;;;;5070721;28;20181;-86
2021/06/29 11:11:13;;;;;;;14.87;13.37;;;;;;;;;;5071738;28;20179;-87
2021/06/29 11:13:46;;;;;;;14.17;12.77;;;;;;;;;;5075209;28;20205;-88
2021/06/29 11:16:12;;;;;;;15.30;13.67;;;;;;;;;;5070088;28;20269;-86
2021/06/29 11:18:39;;;;;;;14.43;12.93;;;;;;;;;;5074031;28;20175;-86
2021/06/29 11:21:06;;;;;;;13.70;12.30;;;;;;;;;;5073755;28;20217;-87
2021/06/29 11:23:36;;;;;;;13.40;12.13;;;;;;;;;;5074849;28;20287;-89
2021/06/29 11:26:14;;;;;;;14.53;13.07;;;;;;;;;;5074478;28;20175;-87
2021/06/29 11:28:44;;;;;;;13.03;11.63;;;;;;;;;;5073263;28;20173;-87
2021/06/29 11:31:29;;;;;;;13.63;12.33;;;;;;;;;;5070225;28;20179;-88
2021/06/29 11:33:57;;;;;;;12.63;11.40;;;;;;;;;;5069149;28;20257;-88
2021/06/29 11:36:28;;;;;;;13.20;11.90;;;;;;;;;;5073868;28;20236;-88
2021/06/29 11:39:13;;;;;;;13.20;10.63;;;;;;;;;;5066846;28;20182;-87
2021/06/29 11:41:40;;;;;;;13.33;10.83;;;;;;;;;;5067657;28;20194;-85
2021/06/29 11:44:06;;;;;;;13.05;11.75;;;;;;;;;;5071741;28;20409;-84
2021/06/29 11:46:48;;;;;;;10.90;9.90;;;;;;;;;;5073439;28;20187;-84
2021/06/29 11:49:15;;;;;;;10.40;9.40;;;;;;;;;;5068050;28;20326;-85
2021/06/29 11:52:01;;;;;;;11.93;10.70;;;;;;;;;;5059663;28;20179;-85
2021/06/29 11:54:27;;;;;;;12.03;10.93;;;;;;;;;;5071606;28;20772;-85
2021/06/29 11:56:54;;;;;;;11.30;10.20;;;;;;;;;;5069305;28;20841;-85
2021/06/29 11:59:30;;;;;;;12.50;11.20;;;;;;;;;;5071920;28;20204;-85
2021/06/29 12:02:07;;;;;;;11.57;10.43;;;;;;;;;;5072298;28;20222;-85
2021/06/29 12:04:33;;;;;;;13.37;12.17;;;;;;;;;;5062547;28;20525;-85
2021/06/29 12:07:01;;;;;;;11.23;10.13;;;;;;;;;;5070777;28;20204;-86
2021/06/29 12:09:35;;;;;;;11.07;9.93;;;;;;;;;;5068555;28;20868;-86
2021/06/29 12:12:20;;;;;;;11.27;10.17;;;;;;;;;;5078719;28;20207;-85
2021/06/29 12:14:47;;;;;;;11.93;10.73;;;;;;;;;;5070185;28;20181;-86
2021/06/29 12:17:13;;;;;;;10.70;9.57;;;;;;;;;;5074487;28;20197;-87
2021/06/29 12:19:40;;;;;;;11.37;10.27;;;;;;;;;;5074199;28;20183;-88
2021/06/29 12:22:06;;;;;;;11.03;10.00;;;;;;;;;;5072644;28;20176;-89
2021/06/29 12:24:33;;;;;;;10.87;9.73;;;;;;;;;;5072841;28;20172;-88
2021/06/29 12:26:59;;;;;;;12.50;10.97;;;;;;;;;;5073308;28;20200;-88
2021/06/29 12:29:36;;;;;;;12.50;11.32;;;;;;;;;;5069155;28;20921;-88
2021/06/29 12:32:14;;;;;;;11.23;10.20;;;;;;;;;;5070679;28;20657;-88
2021/06/29 12:34:40;;;;;;;11.43;10.33;;;;;;;;;;5071685;28;20261;-88
2021/06/29 12:37:06;;;;;;;10.07;9.10;;;;;;;;;;5065873;28;20267;-88
2021/06/29 12:39:32;;;;;;;9.53;8.73;;;;;;;;;;5074159;28;20708;-89
2021/06/29 12:41:58;;;;;;;10.43;9.43;;;;;;;;;;5073827;28;20309;-88
2021/06/29 12:44:26;;;;;;;9.67;8.70;;;;;;;;;;5072781;28;20173;-89
2021/06/29 12:46:52;;;;;;;9.20;8.27;;;;;;;;;;5073791;28;20183;-88
2021/06/29 12:49:20;;;;;;;9.10;8.30;;;;;;;;;;5072820;28;20264;-88
2021/06/29 12:51:47;;;;;;;8.27;7.47;;;;;;;;;;5072757;28;20523;-88
2021/06/29 12:54:18;;;;;;;9.13;8.23;;;;;;;;;;5072401;28;20192;-88
2021/06/29 12:56:49;;;;;;;8.83;8.03;;;;;;;;;;5070460;28;20203;-85
2021/06/29 12:59:16;;;;;;;9.33;8.33;;;;;;;;;;5070806;28;20177;-85
2021/06/29 13:01:43;;;;;;;8.50;7.40;;;;;;;;;;5069210;28;20177;-85
2021/06/29 13:04:11;;;;;;;7.27;6.60;;;;;;;;;;5069784;28;20169;-85
2021/06/29 13:06:38;;;;;;;7.47;6.80;;;;;;;;;;5063414;28;20219;-85
2021/06/29 13:09:14;;;;;;;7.90;7.20;;;;;;;;;;5070468;28;20269;-86
2021/06/29 13:11:41;;;;;;;7.77;6.97;;;;;;;;;;5070199;28;20184;-86
2021/06/29 13:14:08;;;;;;;7.33;6.63;;;;;;;;;;5073813;28;20479;-86
2021/06/29 13:16:35;;;;;;;7.80;7.10;;;;;;;;;;5071549;28;20251;-86
2021/06/29 13:19:02;;;;;;;6.93;6.23;;;;;;;;;;5072415;28;20177;-86
2021/06/29 13:21:28;;;;;;;7.20;6.60;;;;;;;;;;5069615;28;20298;-85
2021/06/29 13:23:59;;;;;;;6.90;6.30;;;;;;;;;;5057330;28;20169;-86
2021/06/29 13:26:25;;;;;;;6.50;5.90;;;;;;;;;;5070886;28;20179;-86
2021/06/29 13:28:51;;;;;;;6.60;6.07;;;;;;;;;;5057102;28;20177;-86
2021/06/29 13:31:18;;;;;;;6.60;6.00;;;;;;;;;;5066910;28;20193;-86
2021/06/29 13:33:44;;;;;;;6.90;6.30;;;;;;;;;;5055558;28;20283;-86
2021/06/29 13:36:11;;;;;;;6.97;6.33;;;;;;;;;;5071422;28;20282;-85
2021/06/29 13:38:37;;;;;;;7.03;6.33;;;;;;;;;;5067970;28;20590;-85
2021/06/29 13:41:03;;;;;;;6.70;6.10;;;;;;;;;;5068373;28;20235;-85
2021/06/29 13:43:35;;;;;;;7.90;7.20;;;;;;;;;;5062712;28;20210;-84
2021/06/29 13:46:12;;;;;;;7.47;6.70;;;;;;;;;;5057278;28;20188;-85
2021/06/29 13:48:38;;;;;;;7.37;6.70;;;;;;;;;;5057467;28;20200;-86
2021/06/29 13:51:20;;;;;;;6.80;6.20;;;;;;;;;;5071877;28;20260;-85
2021/06/29 13:53:46;;;;;;;6.93;6.17;;;;;;;;;;5054140;28;20172;-86
2021/06/29 13:56:14;;;;;;;6.70;5.57;;;;;;;;;;5065852;28;20489;-84
2021/06/29 13:58:48;;;;;;;6.70;6.10;;;;;;;;;;5071195;28;20274;-85
2021/06/29 14:01:14;;;;;;;7.37;6.57;;;;;;;;;;5065181;28;20568;-81
2021/06/29 14:03:41;;;;;;;8.47;7.67;;;;;;;;;;5069796;28;20179;-81
2021/06/29 14:06:11;;;;;;;8.33;7.50;;;;;;;;;;5067217;28;20192;-82
2021/06/29 14:08:43;;;;;;;8.33;7.30;;;;;;;;;;5060060;28;20189;-82
2021/06/29 14:11:14;;;;;;;7.87;7.07;;;;;;;;;;5069928;28;20168;-82
2021/06/29 14:13:45;;;;;;;7.60;6.90;;;;;;;;;;5069668;28;20173;-81
2021/06/29 14:16:12;;;;;;;8.03;7.20;;;;;;;;;;5068092;28;20903;-81
2021/06/29 14:18:38;;;;;;;7.25;6.65;;;;;;;;;;5070106;28;20425;-82
2021/06/29 14:21:06;;;;;;;7.60;6.90;;;;;;;;;;5069389;28;20168;-82
2021/06/29 14:23:32;;;;;;;7.83;6.97;;;;;;;;;;5067986;28;20189;-82
2021/06/29 14:25:58;;;;;;;8.33;7.13;;;;;;;;;;5070090;28;20168;-82
2021/06/29 14:28:25;;;;;;;9.70;8.57;;;;;;;;;;5070139;28;20624;-82
2021/06/29 14:30:51;;;;;;;7.53;6.80;;;;;;;;;;5071148;28;20203;-81
2021/06/29 14:33:17;;;;;;;9.53;7.40;;;;;;;;;;5069021;28;20280;-81
2021/06/29 14:35:43;;;;;;;7.90;7.17;;;;;;;;;;5064772;28;20223;-82
2021/06/29 14:38:12;;;;;;;8.60;7.80;;;;;;;;;;5068374;28;20553;-82
2021/06/29 14:40:38;;;;;;;7.90;7.10;;;;;;;;;;5070354;28;20187;-82
2021/06/29 14:43:04;;;;;;;8.97;8.07;;;;;;;;;;5068860;28;20190;-82